Aalten, Netherlands
Current Conditions -  °F | °C
As of 4:20 PM on Wednesday 22 Oct 2014 (Local Time) from EDLV Reporting Station
Scattered Clouds Scattered Clouds  
Wind Chill: 54°   Ceiling: Unl
Heat Index: 54°   Visibility: 6mi
Dew Point: 45°   Wind: 7mph
Humidity: 72%   Direction: NA
Pressure: 30.09"   Gusts: NA
Location:  51.93°N, 6.58°E
Report Text: EDLV 221420Z VRB06KT 9999 SCT038 12/07 Q1019
Loading
Personal Weather Stations






























Interactive Weather Map
Tropical Storm Tracking
New forecast layout! Learn more

10-Day Weather Forecast

Advertisements
Track Severe Weather on mobile